createdAt,value
2023-05-03T00:00:09.418Z,100.00
2023-05-03T00:02:39.357Z,100.00
2023-05-03T00:05:13.180Z,100.00
2023-05-03T00:07:44.821Z,100.00
2023-05-03T00:10:16.118Z,100.00
2023-05-03T00:12:45.518Z,100.00
2023-05-03T00:15:13.736Z,100.00
2023-05-03T00:17:42.350Z,100.00
2023-05-03T00:20:12.983Z,100.00
2023-05-03T00:22:41.216Z,100.00
2023-05-03T00:25:10.569Z,100.00
2023-05-03T00:27:38.832Z,100.00
2023-05-03T00:30:08.327Z,100.00
2023-05-03T00:32:37.172Z,100.00
2023-05-03T00:35:05.753Z,100.00
2023-05-03T00:37:35.723Z,100.00
2023-05-03T00:40:05.252Z,100.00
2023-05-03T00:42:36.451Z,100.00
2023-05-03T00:45:06.481Z,100.00
2023-05-03T00:47:35.269Z,100.00
2023-05-03T00:50:03.894Z,100.00
2023-05-03T00:52:32.744Z,100.00
2023-05-03T00:55:03.305Z,100.00
2023-05-03T00:57:32.498Z,100.00
2023-05-03T01:00:01.577Z,100.00
2023-05-03T01:02:30.788Z,100.00
2023-05-03T01:04:59.120Z,100.00
2023-05-03T01:07:42.502Z,100.00
2023-05-03T01:10:23.032Z,100.00
2023-05-03T01:12:58.270Z,100.00
2023-05-03T01:15:40.884Z,100.00
2023-05-03T01:18:13.726Z,100.00
2023-05-03T01:20:48.503Z,100.00
2023-05-03T01:23:29.760Z,100.00
2023-05-03T01:25:59.585Z,100.00
2023-05-03T01:28:27.894Z,100.00
2023-05-03T01:30:58.236Z,100.00
2023-05-03T01:33:35.051Z,100.00
2023-05-03T01:36:12.300Z,100.00
2023-05-03T01:38:41.415Z,100.00
2023-05-03T01:41:14.941Z,100.00
2023-05-03T01:43:45.169Z,100.00
2023-05-03T01:46:14.315Z,100.00
2023-05-03T01:48:43.186Z,100.00
2023-05-03T01:51:11.549Z,100.00
2023-05-03T01:53:41.816Z,100.00
2023-05-03T01:56:11.826Z,100.00
2023-05-03T01:58:40.112Z,100.00
2023-05-03T02:01:08.561Z,100.00
2023-05-03T02:03:37.037Z,100.00
2023-05-03T02:06:05.977Z,100.00
2023-05-03T02:08:34.299Z,100.00
2023-05-03T02:11:02.971Z,100.00
2023-05-03T02:13:33.086Z,100.00
2023-05-03T02:16:01.236Z,100.00
2023-05-03T02:18:31.793Z,100.00
2023-05-03T02:21:00.368Z,100.00
2023-05-03T02:23:28.626Z,100.00
2023-05-03T02:25:56.981Z,100.00
2023-05-03T02:28:25.433Z,100.00
2023-05-03T02:30:55.326Z,100.00
2023-05-03T02:33:23.973Z,100.00
2023-05-03T02:35:52.138Z,100.00
2023-05-03T02:38:20.299Z,100.00
2023-05-03T02:40:48.489Z,100.00
2023-05-03T02:43:16.808Z,100.00
2023-05-03T02:45:44.941Z,100.00
2023-05-03T02:48:16.454Z,100.00
2023-05-03T02:50:44.912Z,100.00
2023-05-03T02:53:12.991Z,100.00
2023-05-03T02:55:41.432Z,100.00
2023-05-03T02:58:10.316Z,100.00
2023-05-03T03:00:38.540Z,100.00
2023-05-03T03:03:07.214Z,100.00
2023-05-03T03:05:37.367Z,100.00
2023-05-03T03:08:06.194Z,100.00
2023-05-03T03:10:34.964Z,100.00
2023-05-03T03:13:03.347Z,100.00
2023-05-03T03:15:31.832Z,100.00
2023-05-03T03:18:00.353Z,100.00
2023-05-03T03:20:28.814Z,100.00
2023-05-03T03:22:58.628Z,100.00
2023-05-03T03:25:27.176Z,100.00
2023-05-03T03:27:55.673Z,100.00
2023-05-03T03:30:23.834Z,100.00
2023-05-03T03:32:52.127Z,100.00
2023-05-03T03:35:21.588Z,100.00
2023-05-03T03:37:49.958Z,100.00
2023-05-03T03:40:19.826Z,100.00
2023-05-03T03:42:48.391Z,100.00
2023-05-03T03:45:16.454Z,100.00
2023-05-03T03:47:44.724Z,100.00
2023-05-03T03:50:13.026Z,100.00
2023-05-03T03:52:41.331Z,100.00
2023-05-03T03:55:10.607Z,100.00
2023-05-03T03:57:40.544Z,100.00
2023-05-03T04:00:11.886Z,100.00
2023-05-03T04:02:41.044Z,100.00
2023-05-03T04:05:09.993Z,100.00
2023-05-03T04:07:38.539Z,100.00
2023-05-03T04:10:07.718Z,100.00
2023-05-03T04:12:35.920Z,100.00
2023-05-03T04:15:06.258Z,100.00
2023-05-03T04:17:35.239Z,100.00
2023-05-03T04:20:08.459Z,100.00
2023-05-03T04:22:36.744Z,100.00
2023-05-03T04:25:05.468Z,100.00
2023-05-03T04:27:33.716Z,100.00
2023-05-03T04:30:08.075Z,100.00
2023-05-03T04:32:37.919Z,100.00
2023-05-03T04:35:09.760Z,100.00
2023-05-03T04:37:38.761Z,100.00
2023-05-03T04:40:09.775Z,100.00
2023-05-03T04:42:38.009Z,100.00
2023-05-03T04:45:09.903Z,100.00
2023-05-03T04:47:38.185Z,100.00
2023-05-03T04:50:08.061Z,100.00
2023-05-03T04:52:37.288Z,100.00
2023-05-03T04:55:06.623Z,100.00
2023-05-03T04:57:35.639Z,100.00
2023-05-03T05:00:07.763Z,100.00
2023-05-03T05:02:37.404Z,100.00
2023-05-03T05:05:05.952Z,100.00
2023-05-03T05:07:34.585Z,100.00
2023-05-03T05:10:03.059Z,100.00
2023-05-03T05:12:31.835Z,100.00
2023-05-03T05:15:00.094Z,100.00
2023-05-03T05:17:28.463Z,100.00
2023-05-03T05:19:58.176Z,100.00
2023-05-03T05:22:26.598Z,100.00
2023-05-03T05:24:54.836Z,100.00
2023-05-03T05:27:23.800Z,100.00
2023-05-03T05:29:52.427Z,100.00
2023-05-03T05:32:20.548Z,100.00
2023-05-03T05:34:53.112Z,100.00
2023-05-03T05:37:23.253Z,100.00
2023-05-03T05:39:51.600Z,100.00
2023-05-03T05:42:19.856Z,100.00
2023-05-03T05:44:48.096Z,100.00
2023-05-03T05:47:16.804Z,100.00
2023-05-03T05:49:45.155Z,100.00
2023-05-03T05:52:13.538Z,100.00
2023-05-03T05:54:43.362Z,100.00
2023-05-03T05:57:12.669Z,100.00
2023-05-03T05:59:41.064Z,100.00
2023-05-03T06:02:16.758Z,100.00
2023-05-03T06:04:45.587Z,100.00
2023-05-03T06:07:14.632Z,100.00
2023-05-03T06:09:44.392Z,100.00
2023-05-03T06:12:12.621Z,100.00
2023-05-03T06:14:46.267Z,100.00
2023-05-03T06:17:20.256Z,100.00
2023-05-03T06:19:49.459Z,100.00
2023-05-03T06:22:17.757Z,100.00
2023-05-03T06:24:47.812Z,100.00
2023-05-03T06:27:15.954Z,100.00
2023-05-03T06:29:45.018Z,100.00
2023-05-03T06:32:13.293Z,100.00
2023-05-03T06:34:41.559Z,100.00
2023-05-03T06:37:10.067Z,100.00
2023-05-03T06:39:38.602Z,100.00
2023-05-03T06:42:09.023Z,100.00
2023-05-03T06:44:37.205Z,100.00
2023-05-03T06:47:05.510Z,100.00
2023-05-03T06:49:34.171Z,100.00
2023-05-03T06:52:02.381Z,100.00
2023-05-03T06:54:30.993Z,100.00
2023-05-03T06:56:59.677Z,100.00
2023-05-03T06:59:29.464Z,100.00
2023-05-03T07:01:57.767Z,100.00
2023-05-03T07:04:25.959Z,100.00
2023-05-03T07:06:56.850Z,100.00
2023-05-03T07:09:41.353Z,100.00
2023-05-03T07:12:10.597Z,100.00
2023-05-03T07:14:43.234Z,100.00
2023-05-03T07:17:11.924Z,100.00
2023-05-03T07:19:40.325Z,100.00
2023-05-03T07:22:08.573Z,100.00
2023-05-03T07:24:36.840Z,100.00
2023-05-03T07:27:05.536Z,100.00
2023-05-03T07:29:34.095Z,100.00
2023-05-03T07:32:03.742Z,100.00
2023-05-03T07:34:32.879Z,100.00
2023-05-03T07:37:01.243Z,100.00
2023-05-03T07:39:29.506Z,100.00
2023-05-03T07:41:57.821Z,100.00
2023-05-03T07:44:26.228Z,100.00
2023-05-03T07:46:54.456Z,100.00
2023-05-03T07:49:24.449Z,100.00
2023-05-03T07:51:53.313Z,100.00
2023-05-03T07:54:22.008Z,100.00
2023-05-03T07:56:50.094Z,100.00
2023-05-03T07:59:18.272Z,100.00
2023-05-03T08:01:46.571Z,100.00
2023-05-03T08:04:15.450Z,100.00
2023-05-03T08:06:45.543Z,100.00
2023-05-03T08:09:14.158Z,100.00
2023-05-03T08:11:43.975Z,100.00
2023-05-03T08:14:12.924Z,100.00
2023-05-03T08:16:41.467Z,100.00
2023-05-03T08:19:09.555Z,100.00
2023-05-03T08:21:38.176Z,100.00
2023-05-03T08:24:08.613Z,100.00
2023-05-03T08:26:37.742Z,100.00
2023-05-03T08:29:06.049Z,100.00
2023-05-03T08:31:35.517Z,100.00
2023-05-03T08:34:04.107Z,100.00
2023-05-03T08:36:33.190Z,95.69
2023-05-03T08:39:02.207Z,97.06
2023-05-03T08:41:32.708Z,99.08
2023-05-03T08:44:04.420Z,93.76
2023-05-03T08:46:37.220Z,93.64
2023-05-03T08:49:06.911Z,98.10
2023-05-03T08:51:36.156Z,94.43
2023-05-03T08:54:04.220Z,91.36
2023-05-03T08:56:38.058Z,94.37
2023-05-03T08:59:09.339Z,95.17
2023-05-03T09:01:38.425Z,96.68
2023-05-03T09:04:07.828Z,92.54
2023-05-03T09:06:36.909Z,93.15
2023-05-03T09:09:08.005Z,93.89
2023-05-03T09:11:39.466Z,93.37
2023-05-03T09:14:12.444Z,95.97
2023-05-03T09:16:41.937Z,94.79
2023-05-03T09:19:12.004Z,95.46
2023-05-03T09:21:43.190Z,93.23
2023-05-03T09:24:16.105Z,94.22
2023-05-03T09:26:47.393Z,95.30
2023-05-03T09:29:30.602Z,96.09
2023-05-03T09:32:04.917Z,94.79
2023-05-03T09:34:33.501Z,95.63
2023-05-03T09:37:01.956Z,92.98
2023-05-03T09:39:30.727Z,95.99
2023-05-03T09:42:00.910Z,96.19
2023-05-03T09:44:43.102Z,91.52
2023-05-03T09:47:13.001Z,92.19
2023-05-03T09:49:41.405Z,93.86
2023-05-03T09:52:11.338Z,88.07
2023-05-03T09:54:40.927Z,86.53
2023-05-03T09:57:10.873Z,86.44
2023-05-03T09:59:40.662Z,86.15
2023-05-03T10:02:09.769Z,86.58
2023-05-03T10:04:43.556Z,86.04
2023-05-03T10:07:15.525Z,86.02
2023-05-03T10:09:45.978Z,85.10
2023-05-03T10:12:17.897Z,86.78
2023-05-03T10:14:48.652Z,85.56
2023-05-03T10:17:31.961Z,83.61
2023-05-03T10:20:14.147Z,85.08
2023-05-03T10:23:11.052Z,85.92
2023-05-03T10:25:41.183Z,86.74
2023-05-03T10:28:11.246Z,85.88
2023-05-03T10:30:40.711Z,85.41
2023-05-03T10:33:35.245Z,84.97
2023-05-03T10:36:07.746Z,84.61
2023-05-03T10:38:39.577Z,84.35
2023-05-03T10:41:07.957Z,83.70
2023-05-03T10:43:47.106Z,82.58
2023-05-03T10:46:35.009Z,83.19
2023-05-03T10:49:23.187Z,82.44
2023-05-03T10:51:51.830Z,83.17
2023-05-03T10:54:20.344Z,82.25
2023-05-03T10:56:53.413Z,83.06
2023-05-03T10:59:24.558Z,82.49
2023-05-03T11:01:54.956Z,83.00
2023-05-03T11:04:40.649Z,83.18
2023-05-03T11:07:10.538Z,83.46
2023-05-03T11:09:39.042Z,83.21
2023-05-03T11:12:09.963Z,83.57
2023-05-03T11:14:40.497Z,83.79
2023-05-03T11:17:08.730Z,84.60
2023-05-03T11:19:38.028Z,84.23
2023-05-03T11:22:06.708Z,81.97
2023-05-03T11:24:34.752Z,82.22
2023-05-03T11:27:08.381Z,82.76
2023-05-03T11:29:37.850Z,82.55
2023-05-03T11:32:09.713Z,83.22
2023-05-03T11:34:41.257Z,82.71
2023-05-03T11:37:11.137Z,81.85
2023-05-03T11:39:39.208Z,81.69
2023-05-03T11:42:08.594Z,81.68
2023-05-03T11:44:37.788Z,80.33
2023-05-03T11:47:07.898Z,80.08
2023-05-03T11:49:36.646Z,79.46
2023-05-03T11:52:05.043Z,78.30
2023-05-03T11:54:33.158Z,79.05
2023-05-03T11:57:02.083Z,78.13
2023-05-03T11:59:38.248Z,77.78
2023-05-03T12:02:09.708Z,77.43
2023-05-03T12:04:41.681Z,77.40
2023-05-03T12:07:12.087Z,77.92
2023-05-03T12:09:44.526Z,77.41
2023-05-03T12:12:25.064Z,78.72
2023-05-03T12:14:59.867Z,78.18
2023-05-03T12:17:44.106Z,77.44
2023-05-03T12:22:51.976Z,78.20
2023-05-03T12:25:21.748Z,77.76
2023-05-03T12:28:12.774Z,77.58
2023-05-03T12:30:45.797Z,77.30
2023-05-03T12:33:21.846Z,77.30
2023-05-03T12:35:53.508Z,77.37
2023-05-03T12:38:24.181Z,78.00
2023-05-03T12:40:54.591Z,78.83
2023-05-03T12:43:23.230Z,79.00
2023-05-03T12:46:09.345Z,79.46
2023-05-03T12:48:44.038Z,80.58
2023-05-03T12:53:47.407Z,80.54
2023-05-03T12:56:16.391Z,79.74
2023-05-03T12:59:07.501Z,77.91
2023-05-03T13:02:41.075Z,78.15
2023-05-03T13:07:00.205Z,79.66
2023-05-03T13:09:38.551Z,79.95
2023-05-03T13:12:18.511Z,81.52
2023-05-03T13:14:47.589Z,80.76
2023-05-03T13:17:16.082Z,81.91
2023-05-03T13:19:47.341Z,81.31
2023-05-03T13:22:16.436Z,81.11
2023-05-03T13:24:46.460Z,80.25
2023-05-03T13:27:14.980Z,80.63
2023-05-03T13:29:43.879Z,79.56
2023-05-03T13:32:13.276Z,79.33
2023-05-03T13:34:41.593Z,79.62
2023-05-03T13:37:11.701Z,78.84
2023-05-03T13:39:40.050Z,77.30
2023-05-03T13:42:08.310Z,77.99
2023-05-03T13:44:36.442Z,77.63
2023-05-03T13:47:04.632Z,76.59
2023-05-03T13:49:32.992Z,77.52
2023-05-03T13:52:01.226Z,76.66
2023-05-03T13:54:32.207Z,74.79
2023-05-03T13:57:01.768Z,75.73
2023-05-03T13:59:30.305Z,76.51
2023-05-03T14:01:58.402Z,76.61
2023-05-03T14:04:27.104Z,77.52
2023-05-03T14:06:55.494Z,77.11
2023-05-03T14:09:23.658Z,78.61
2023-05-03T14:11:55.109Z,77.13
2023-05-03T14:14:28.120Z,77.89
2023-05-03T14:16:56.303Z,78.98
2023-05-03T14:19:24.382Z,78.75
2023-05-03T14:21:52.816Z,79.63
2023-05-03T14:24:21.111Z,80.18
2023-05-03T14:26:49.242Z,80.13
2023-05-03T14:29:18.837Z,80.95
2023-05-03T14:31:47.088Z,81.21
2023-05-03T14:34:15.205Z,81.73
2023-05-03T14:36:44.033Z,80.14
2023-05-03T14:39:14.637Z,79.70
2023-05-03T14:41:45.746Z,79.41
2023-05-03T14:44:14.054Z,78.89
2023-05-03T14:46:43.852Z,80.66
2023-05-03T14:49:12.155Z,81.09
2023-05-03T14:51:42.921Z,81.09
2023-05-03T14:54:13.252Z,79.71
2023-05-03T14:56:42.183Z,80.50
2023-05-03T14:59:10.622Z,82.35
2023-05-03T15:01:39.041Z,83.12
2023-05-03T15:04:10.797Z,83.24
2023-05-03T15:06:41.426Z,83.62
2023-05-03T15:09:12.101Z,85.61
2023-05-03T15:11:40.885Z,86.79
2023-05-03T15:14:09.742Z,87.17
2023-05-03T15:16:38.677Z,88.22
2023-05-03T15:19:08.688Z,90.02
2023-05-03T15:21:47.341Z,89.05
2023-05-03T15:24:15.471Z,88.80
2023-05-03T15:26:43.741Z,89.59
2023-05-03T15:29:12.715Z,88.35
2023-05-03T15:31:41.316Z,87.58
2023-05-03T15:34:12.605Z,89.45
2023-05-03T15:36:41.236Z,89.60
2023-05-03T15:39:09.847Z,90.77
2023-05-03T15:41:37.978Z,89.81
2023-05-03T15:44:08.468Z,89.18
2023-05-03T15:46:36.801Z,90.92
2023-05-03T15:49:05.380Z,91.68
2023-05-03T15:51:35.364Z,89.42
2023-05-03T15:54:03.838Z,90.26
2023-05-03T15:56:32.370Z,90.39
2023-05-03T15:59:01.296Z,91.34
2023-05-03T16:01:29.623Z,90.86
2023-05-03T16:03:57.876Z,91.72
2023-05-03T16:06:26.444Z,90.05
2023-05-03T16:08:56.124Z,89.57
2023-05-03T16:11:24.393Z,89.54
2023-05-03T16:13:52.773Z,89.19
2023-05-03T16:16:21.174Z,89.99
2023-05-03T16:18:49.402Z,90.71
2023-05-03T16:21:17.710Z,91.97
2023-05-03T16:23:46.618Z,92.01
2023-05-03T16:26:16.258Z,92.24
2023-05-03T16:28:44.728Z,94.47
2023-05-03T16:31:14.174Z,96.69
2023-05-03T16:33:42.471Z,97.62
2023-05-03T16:36:11.024Z,98.37
2023-05-03T16:38:39.089Z,98.40
2023-05-03T16:41:07.461Z,100.00
2023-05-03T16:43:38.309Z,100.00
2023-05-03T16:46:06.871Z,100.00
2023-05-03T16:48:35.438Z,100.00
2023-05-03T16:51:03.912Z,100.00
2023-05-03T16:53:32.610Z,100.00
2023-05-03T16:56:01.796Z,100.00
2023-05-03T16:58:30.223Z,100.00
2023-05-03T17:00:59.923Z,100.00
2023-05-03T17:03:28.114Z,100.00
2023-05-03T17:05:56.563Z,100.00
2023-05-03T17:08:25.032Z,100.00
2023-05-03T17:10:54.385Z,100.00
2023-05-03T17:13:22.596Z,100.00
2023-05-03T17:15:50.695Z,100.00
2023-05-03T17:18:20.292Z,100.00
2023-05-03T17:20:48.692Z,100.00
2023-05-03T17:23:19.296Z,100.00
2023-05-03T17:25:48.847Z,100.00
2023-05-03T17:28:17.471Z,100.00
2023-05-03T17:30:45.671Z,100.00
2023-05-03T17:33:13.819Z,100.00
2023-05-03T17:35:43.338Z,100.00
2023-05-03T17:38:12.781Z,100.00
2023-05-03T17:40:43.248Z,100.00
2023-05-03T17:43:12.481Z,100.00
2023-05-03T17:45:43.017Z,100.00
2023-05-03T17:48:12.090Z,100.00
2023-05-03T17:50:41.941Z,100.00
2023-05-03T17:53:11.639Z,100.00
2023-05-03T17:55:40.730Z,100.00
2023-05-03T17:58:11.016Z,100.00
2023-05-03T18:00:39.739Z,100.00
2023-05-03T18:03:08.560Z,100.00
2023-05-03T18:05:38.248Z,100.00
2023-05-03T18:08:06.654Z,100.00
2023-05-03T18:10:36.352Z,100.00
2023-05-03T18:13:05.439Z,100.00
2023-05-03T18:15:33.625Z,100.00
2023-05-03T18:18:02.986Z,100.00
2023-05-03T18:20:31.365Z,100.00
2023-05-03T18:23:01.704Z,100.00
2023-05-03T18:25:33.534Z,100.00
2023-05-03T18:28:06.265Z,100.00
2023-05-03T18:30:37.808Z,100.00
2023-05-03T18:33:12.437Z,100.00
2023-05-03T18:35:41.703Z,100.00
2023-05-03T18:38:10.381Z,100.00
2023-05-03T18:40:38.855Z,100.00
2023-05-03T18:43:09.286Z,100.00
2023-05-03T18:45:39.186Z,100.00
2023-05-03T18:48:07.715Z,100.00
2023-05-03T18:50:38.443Z,100.00
2023-05-03T18:53:07.443Z,100.00
2023-05-03T18:55:35.455Z,100.00
2023-05-03T18:58:03.799Z,100.00
2023-05-03T19:00:33.623Z,100.00
2023-05-03T19:03:02.186Z,100.00
2023-05-03T19:05:30.897Z,100.00
2023-05-03T19:08:00.201Z,100.00
2023-05-03T19:10:28.526Z,100.00
2023-05-03T19:12:57.698Z,100.00
2023-05-03T19:15:26.026Z,100.00
2023-05-03T19:17:56.189Z,100.00
2023-05-03T19:20:24.528Z,100.00
2023-05-03T19:22:53.008Z,100.00
2023-05-03T19:25:21.246Z,100.00
2023-05-03T19:27:49.493Z,100.00
2023-05-03T19:30:17.929Z,100.00
2023-05-03T19:32:46.455Z,100.00
2023-05-03T19:35:16.385Z,100.00
2023-05-03T19:37:45.086Z,100.00
2023-05-03T19:40:14.494Z,100.00
2023-05-03T19:42:42.843Z,100.00
2023-05-03T19:45:11.579Z,100.00
2023-05-03T19:47:39.757Z,100.00
2023-05-03T19:50:08.734Z,100.00
2023-05-03T19:52:38.708Z,100.00
2023-05-03T19:55:08.447Z,100.00
2023-05-03T19:57:37.360Z,100.00
2023-05-03T20:00:07.246Z,100.00
2023-05-03T20:02:36.855Z,100.00
2023-05-03T20:05:05.984Z,100.00
2023-05-03T20:07:34.113Z,100.00
2023-05-03T20:10:04.064Z,100.00
2023-05-03T20:12:33.208Z,100.00
2023-05-03T20:15:01.699Z,100.00
2023-05-03T20:17:30.008Z,100.00
2023-05-03T20:20:07.616Z,100.00
2023-05-03T20:22:35.677Z,100.00
2023-05-03T20:25:06.097Z,100.00
2023-05-03T20:27:34.670Z,100.00
2023-05-03T20:30:04.582Z,100.00
2023-05-03T20:32:32.962Z,100.00
2023-05-03T20:35:01.400Z,100.00
2023-05-03T20:37:30.153Z,100.00
2023-05-03T20:39:58.518Z,100.00
2023-05-03T20:42:28.310Z,100.00
2023-05-03T20:44:56.412Z,100.00
2023-05-03T20:47:24.853Z,100.00
2023-05-03T20:49:53.016Z,100.00
2023-05-03T20:52:21.316Z,100.00
2023-05-03T20:54:49.580Z,100.00
2023-05-03T20:57:22.639Z,100.00
2023-05-03T20:59:52.750Z,100.00
2023-05-03T21:02:20.898Z,100.00
2023-05-03T21:04:49.248Z,100.00
2023-05-03T21:07:17.331Z,100.00
2023-05-03T21:09:45.609Z,100.00
2023-05-03T21:12:13.863Z,100.00
2023-05-03T21:14:42.351Z,100.00
2023-05-03T21:17:12.382Z,100.00
2023-05-03T21:19:41.172Z,100.00
2023-05-03T21:22:09.345Z,100.00
2023-05-03T21:24:37.516Z,100.00
2023-05-03T21:27:05.916Z,100.00
2023-05-03T21:29:33.968Z,100.00
2023-05-03T21:32:02.493Z,100.00
2023-05-03T21:34:32.548Z,100.00
2023-05-03T21:37:03.845Z,100.00
2023-05-03T21:39:32.853Z,100.00
2023-05-03T21:42:02.115Z,100.00
2023-05-03T21:44:33.072Z,100.00
2023-05-03T21:47:02.056Z,100.00
2023-05-03T21:49:32.232Z,100.00
2023-05-03T21:52:00.479Z,100.00
2023-05-03T21:54:28.667Z,100.00
2023-05-03T21:56:56.836Z,100.00
2023-05-03T21:59:25.238Z,100.00
2023-05-03T22:01:53.797Z,100.00
2023-05-03T22:04:21.962Z,100.00
2023-05-03T22:06:51.744Z,100.00
2023-05-03T22:09:20.002Z,100.00
2023-05-03T22:11:48.330Z,100.00
2023-05-03T22:14:16.397Z,100.00
2023-05-03T22:16:44.968Z,100.00
2023-05-03T22:19:13.804Z,100.00
2023-05-03T22:21:42.556Z,100.00
2023-05-03T22:24:12.455Z,100.00
2023-05-03T22:26:40.774Z,100.00
2023-05-03T22:29:09.299Z,100.00
2023-05-03T22:31:37.967Z,100.00
2023-05-03T22:34:06.301Z,100.00
2023-05-03T22:36:34.667Z,100.00
2023-05-03T22:39:05.521Z,100.00
2023-05-03T22:41:35.262Z,100.00
2023-05-03T22:44:03.650Z,100.00
2023-05-03T22:46:34.727Z,100.00
2023-05-03T22:49:04.126Z,100.00
2023-05-03T22:51:32.755Z,100.00
2023-05-03T22:54:01.025Z,100.00
2023-05-03T22:56:29.550Z,100.00
2023-05-03T22:58:59.294Z,100.00
2023-05-03T23:01:27.658Z,100.00
2023-05-03T23:03:56.387Z,100.00
2023-05-03T23:06:25.214Z,100.00
2023-05-03T23:08:53.249Z,100.00
2023-05-03T23:11:23.651Z,100.00
2023-05-03T23:13:52.130Z,100.00
2023-05-03T23:16:21.914Z,100.00
2023-05-03T23:18:50.148Z,100.00
2023-05-03T23:21:18.665Z,100.00
2023-05-03T23:23:47.080Z,100.00
2023-05-03T23:26:15.415Z,100.00
2023-05-03T23:28:44.125Z,100.00
2023-05-03T23:31:12.684Z,100.00
2023-05-03T23:33:42.777Z,100.00
2023-05-03T23:36:11.468Z,100.00
2023-05-03T23:38:39.882Z,100.00
2023-05-03T23:41:08.085Z,100.00
2023-05-03T23:43:36.524Z,100.00
2023-05-03T23:46:04.672Z,100.00
2023-05-03T23:48:32.936Z,100.00
2023-05-03T23:51:02.733Z,100.00
2023-05-03T23:53:30.820Z,100.00
2023-05-03T23:55:58.939Z,100.00
2023-05-03T23:58:27.378Z,100.00
